sensor_id;sensor_type;location;lat;lon;timestamp;P1;durP1;ratioP1;P2;durP2;ratioP2
46653;SDS011;38960;51.074;17.004;2023-05-07T00:01:06;15.48;;;14.43;;
46653;SDS011;38960;51.074;17.004;2023-05-07T00:03:31;15.82;;;14.55;;
46653;SDS011;38960;51.074;17.004;2023-05-07T00:05:57;16.25;;;14.98;;
46653;SDS011;38960;51.074;17.004;2023-05-07T00:08:23;16.13;;;15.05;;
46653;SDS011;38960;51.074;17.004;2023-05-07T00:10:49;17.08;;;15.50;;
46653;SDS011;38960;51.074;17.004;2023-05-07T00:13:14;18.33;;;15.98;;
46653;SDS011;38960;51.074;17.004;2023-05-07T00:15:40;17.20;;;15.73;;
46653;SDS011;38960;51.074;17.004;2023-05-07T00:18:06;15.95;;;14.88;;
46653;SDS011;38960;51.074;17.004;2023-05-07T00:20:31;15.15;;;14.20;;
46653;SDS011;38960;51.074;17.004;2023-05-07T00:22:57;16.42;;;15.20;;
46653;SDS011;38960;51.074;17.004;2023-05-07T00:25:22;16.50;;;15.38;;
46653;SDS011;38960;51.074;17.004;2023-05-07T00:27:48;16.20;;;15.10;;
46653;SDS011;38960;51.074;17.004;2023-05-07T00:30:14;17.10;;;15.80;;
46653;SDS011;38960;51.074;17.004;2023-05-07T00:32:39;16.67;;;15.20;;
46653;SDS011;38960;51.074;17.004;2023-05-07T00:35:05;16.52;;;15.13;;
46653;SDS011;38960;51.074;17.004;2023-05-07T00:37:31;16.40;;;15.20;;
46653;SDS011;38960;51.074;17.004;2023-05-07T00:39:57;15.90;;;14.63;;
46653;SDS011;38960;51.074;17.004;2023-05-07T00:42:22;15.90;;;14.75;;
46653;SDS011;38960;51.074;17.004;2023-05-07T00:44:49;16.63;;;15.32;;
46653;SDS011;38960;51.074;17.004;2023-05-07T00:47:15;16.17;;;14.98;;
46653;SDS011;38960;51.074;17.004;2023-05-07T00:49:42;16.50;;;14.93;;
46653;SDS011;38960;51.074;17.004;2023-05-07T00:52:09;16.33;;;15.23;;
46653;SDS011;38960;51.074;17.004;2023-05-07T00:54:36;16.60;;;15.40;;
46653;SDS011;38960;51.074;17.004;2023-05-07T00:57:02;17.35;;;16.15;;
46653;SDS011;38960;51.074;17.004;2023-05-07T00:59:31;17.30;;;16.10;;
46653;SDS011;38960;51.074;17.004;2023-05-07T01:01:58;16.02;;;14.82;;
46653;SDS011;38960;51.074;17.004;2023-05-07T01:04:24;16.52;;;15.32;;
46653;SDS011;38960;51.074;17.004;2023-05-07T01:06:50;15.63;;;14.60;;
46653;SDS011;38960;51.074;17.004;2023-05-07T01:09:17;17.52;;;16.30;;
46653;SDS011;38960;51.074;17.004;2023-05-07T01:11:45;16.90;;;15.60;;
46653;SDS011;38960;51.074;17.004;2023-05-07T01:14:10;16.25;;;15.18;;
46653;SDS011;38960;51.074;17.004;2023-05-07T01:16:36;16.85;;;15.68;;
46653;SDS011;38960;51.074;17.004;2023-05-07T01:19:02;17.17;;;15.98;;
46653;SDS011;38960;51.074;17.004;2023-05-07T01:21:28;16.88;;;15.68;;
46653;SDS011;38960;51.074;17.004;2023-05-07T01:23:58;16.95;;;15.75;;
46653;SDS011;38960;51.074;17.004;2023-05-07T01:26:24;16.40;;;15.20;;
46653;SDS011;38960;51.074;17.004;2023-05-07T01:28:49;17.42;;;15.90;;
46653;SDS011;38960;51.074;17.004;2023-05-07T01:31:16;16.83;;;15.60;;
46653;SDS011;38960;51.074;17.004;2023-05-07T01:33:42;17.08;;;15.80;;
46653;SDS011;38960;51.074;17.004;2023-05-07T01:36:09;16.40;;;15.30;;
46653;SDS011;38960;51.074;17.004;2023-05-07T01:38:36;17.67;;;16.33;;
46653;SDS011;38960;51.074;17.004;2023-05-07T01:41:02;17.17;;;15.80;;
46653;SDS011;38960;51.074;17.004;2023-05-07T01:43:28;17.30;;;16.00;;
46653;SDS011;38960;51.074;17.004;2023-05-07T01:45:55;16.77;;;15.38;;
46653;SDS011;38960;51.074;17.004;2023-05-07T01:48:20;16.58;;;15.23;;
46653;SDS011;38960;51.074;17.004;2023-05-07T01:50:46;17.75;;;16.45;;
46653;SDS011;38960;51.074;17.004;2023-05-07T01:53:12;17.08;;;15.65;;
46653;SDS011;38960;51.074;17.004;2023-05-07T01:55:38;16.48;;;15.27;;
46653;SDS011;38960;51.074;17.004;2023-05-07T01:58:04;17.30;;;16.10;;
46653;SDS011;38960;51.074;17.004;2023-05-07T02:00:29;17.40;;;15.98;;
46653;SDS011;38960;51.074;17.004;2023-05-07T02:02:55;16.75;;;15.65;;
46653;SDS011;38960;51.074;17.004;2023-05-07T02:05:41;17.73;;;16.08;;
46653;SDS011;38960;51.074;17.004;2023-05-07T02:08:17;16.70;;;15.48;;
46653;SDS011;38960;51.074;17.004;2023-05-07T02:10:43;17.40;;;16.13;;
46653;SDS011;38960;51.074;17.004;2023-05-07T02:13:09;16.70;;;15.60;;
46653;SDS011;38960;51.074;17.004;2023-05-07T02:15:34;16.83;;;15.52;;
46653;SDS011;38960;51.074;17.004;2023-05-07T02:18:05;17.70;;;16.20;;
46653;SDS011;38960;51.074;17.004;2023-05-07T02:20:36;18.80;;;17.40;;
46653;SDS011;38960;51.074;17.004;2023-05-07T02:23:02;18.38;;;17.08;;
46653;SDS011;38960;51.074;17.004;2023-05-07T02:25:29;18.35;;;16.60;;
46653;SDS011;38960;51.074;17.004;2023-05-07T02:27:55;17.50;;;16.10;;
46653;SDS011;38960;51.074;17.004;2023-05-07T02:30:25;18.02;;;16.73;;
46653;SDS011;38960;51.074;17.004;2023-05-07T02:32:53;16.40;;;15.10;;
46653;SDS011;38960;51.074;17.004;2023-05-07T02:35:19;17.02;;;15.70;;
46653;SDS011;38960;51.074;17.004;2023-05-07T02:37:45;17.08;;;15.75;;
46653;SDS011;38960;51.074;17.004;2023-05-07T02:40:11;16.80;;;15.50;;
46653;SDS011;38960;51.074;17.004;2023-05-07T02:42:36;17.30;;;15.98;;
46653;SDS011;38960;51.074;17.004;2023-05-07T02:45:02;18.20;;;16.58;;
46653;SDS011;38960;51.074;17.004;2023-05-07T02:47:30;17.27;;;15.98;;
46653;SDS011;38960;51.074;17.004;2023-05-07T02:49:57;17.83;;;16.63;;
46653;SDS011;38960;51.074;17.004;2023-05-07T02:52:23;17.25;;;15.95;;
46653;SDS011;38960;51.074;17.004;2023-05-07T02:54:48;17.77;;;16.48;;
46653;SDS011;38960;51.074;17.004;2023-05-07T02:57:14;16.70;;;15.50;;
46653;SDS011;38960;51.074;17.004;2023-05-07T02:59:40;18.10;;;16.70;;
46653;SDS011;38960;51.074;17.004;2023-05-07T03:02:05;18.17;;;16.38;;
46653;SDS011;38960;51.074;17.004;2023-05-07T03:04:31;17.83;;;16.42;;
46653;SDS011;38960;51.074;17.004;2023-05-07T03:06:57;17.63;;;16.33;;
46653;SDS011;38960;51.074;17.004;2023-05-07T03:09:22;17.63;;;16.00;;
46653;SDS011;38960;51.074;17.004;2023-05-07T03:11:48;18.02;;;16.50;;
46653;SDS011;38960;51.074;17.004;2023-05-07T03:14:14;17.02;;;15.73;;
46653;SDS011;38960;51.074;17.004;2023-05-07T03:16:40;16.88;;;15.68;;
46653;SDS011;38960;51.074;17.004;2023-05-07T03:19:05;17.13;;;15.75;;
46653;SDS011;38960;51.074;17.004;2023-05-07T03:21:31;16.75;;;15.52;;
46653;SDS011;38960;51.074;17.004;2023-05-07T03:23:59;17.38;;;16.17;;
46653;SDS011;38960;51.074;17.004;2023-05-07T03:26:24;18.25;;;16.85;;
46653;SDS011;38960;51.074;17.004;2023-05-07T03:28:50;17.98;;;16.38;;
46653;SDS011;38960;51.074;17.004;2023-05-07T03:31:16;17.67;;;16.38;;
46653;SDS011;38960;51.074;17.004;2023-05-07T03:33:52;16.40;;;15.05;;
46653;SDS011;38960;51.074;17.004;2023-05-07T03:36:19;16.90;;;15.60;;
46653;SDS011;38960;51.074;17.004;2023-05-07T03:38:45;16.55;;;15.15;;
46653;SDS011;38960;51.074;17.004;2023-05-07T03:41:11;16.80;;;15.50;;
46653;SDS011;38960;51.074;17.004;2023-05-07T03:43:37;17.52;;;15.82;;
46653;SDS011;38960;51.074;17.004;2023-05-07T03:46:06;17.42;;;16.02;;
46653;SDS011;38960;51.074;17.004;2023-05-07T03:48:32;16.15;;;14.85;;
46653;SDS011;38960;51.074;17.004;2023-05-07T03:50:58;17.15;;;15.65;;
46653;SDS011;38960;51.074;17.004;2023-05-07T03:53:28;16.80;;;15.55;;
46653;SDS011;38960;51.074;17.004;2023-05-07T03:55:53;15.98;;;14.80;;
46653;SDS011;38960;51.074;17.004;2023-05-07T03:58:20;15.73;;;14.63;;
46653;SDS011;38960;51.074;17.004;2023-05-07T04:00:45;16.33;;;15.10;;
46653;SDS011;38960;51.074;17.004;2023-05-07T04:03:21;15.75;;;14.40;;
46653;SDS011;38960;51.074;17.004;2023-05-07T04:05:47;16.27;;;15.00;;
46653;SDS011;38960;51.074;17.004;2023-05-07T04:08:13;15.05;;;14.05;;
46653;SDS011;38960;51.074;17.004;2023-05-07T04:10:43;15.35;;;14.35;;
46653;SDS011;38960;51.074;17.004;2023-05-07T04:13:10;16.52;;;15.35;;
46653;SDS011;38960;51.074;17.004;2023-05-07T04:15:36;15.88;;;14.68;;
46653;SDS011;38960;51.074;17.004;2023-05-07T04:18:04;15.98;;;14.88;;
46653;SDS011;38960;51.074;17.004;2023-05-07T04:20:30;16.13;;;14.93;;
46653;SDS011;38960;51.074;17.004;2023-05-07T04:23:01;16.05;;;14.70;;
46653;SDS011;38960;51.074;17.004;2023-05-07T04:25:27;14.95;;;13.85;;
46653;SDS011;38960;51.074;17.004;2023-05-07T04:28:00;16.25;;;15.07;;
46653;SDS011;38960;51.074;17.004;2023-05-07T04:30:27;14.88;;;13.80;;
46653;SDS011;38960;51.074;17.004;2023-05-07T04:32:53;16.30;;;15.10;;
46653;SDS011;38960;51.074;17.004;2023-05-07T04:35:20;15.90;;;14.75;;
46653;SDS011;38960;51.074;17.004;2023-05-07T04:37:45;15.35;;;14.32;;
46653;SDS011;38960;51.074;17.004;2023-05-07T04:40:12;17.02;;;15.93;;
46653;SDS011;38960;51.074;17.004;2023-05-07T04:42:38;15.38;;;14.20;;
46653;SDS011;38960;51.074;17.004;2023-05-07T04:45:06;15.98;;;14.70;;
46653;SDS011;38960;51.074;17.004;2023-05-07T04:47:33;16.02;;;14.98;;
46653;SDS011;38960;51.074;17.004;2023-05-07T04:50:01;16.23;;;15.13;;
46653;SDS011;38960;51.074;17.004;2023-05-07T04:52:26;15.20;;;14.25;;
46653;SDS011;38960;51.074;17.004;2023-05-07T04:54:52;16.05;;;14.95;;
46653;SDS011;38960;51.074;17.004;2023-05-07T04:57:18;16.45;;;15.35;;
46653;SDS011;38960;51.074;17.004;2023-05-07T04:59:44;15.80;;;14.82;;
46653;SDS011;38960;51.074;17.004;2023-05-07T05:02:10;16.30;;;15.20;;
46653;SDS011;38960;51.074;17.004;2023-05-07T05:04:36;15.80;;;14.82;;
46653;SDS011;38960;51.074;17.004;2023-05-07T05:07:02;16.75;;;15.40;;
46653;SDS011;38960;51.074;17.004;2023-05-07T05:09:29;16.77;;;15.55;;
46653;SDS011;38960;51.074;17.004;2023-05-07T05:11:55;16.85;;;15.80;;
46653;SDS011;38960;51.074;17.004;2023-05-07T05:14:21;15.25;;;14.05;;
46653;SDS011;38960;51.074;17.004;2023-05-07T05:16:47;16.85;;;15.80;;
46653;SDS011;38960;51.074;17.004;2023-05-07T05:19:13;15.40;;;14.13;;
46653;SDS011;38960;51.074;17.004;2023-05-07T05:21:39;14.90;;;13.80;;
46653;SDS011;38960;51.074;17.004;2023-05-07T05:24:08;14.80;;;13.90;;
46653;SDS011;38960;51.074;17.004;2023-05-07T05:26:33;15.38;;;14.38;;
46653;SDS011;38960;51.074;17.004;2023-05-07T05:29:00;15.25;;;14.25;;
46653;SDS011;38960;51.074;17.004;2023-05-07T05:31:28;15.45;;;14.23;;
46653;SDS011;38960;51.074;17.004;2023-05-07T05:33:54;15.00;;;13.98;;
46653;SDS011;38960;51.074;17.004;2023-05-07T05:36:19;15.43;;;14.43;;
46653;SDS011;38960;51.074;17.004;2023-05-07T05:38:46;16.25;;;15.15;;
46653;SDS011;38960;51.074;17.004;2023-05-07T05:41:12;14.82;;;13.82;;
46653;SDS011;38960;51.074;17.004;2023-05-07T05:43:38;14.32;;;13.43;;
46653;SDS011;38960;51.074;17.004;2023-05-07T05:46:03;15.52;;;14.30;;
46653;SDS011;38960;51.074;17.004;2023-05-07T05:48:30;14.23;;;13.23;;
46653;SDS011;38960;51.074;17.004;2023-05-07T05:50:57;15.75;;;14.70;;
46653;SDS011;38960;51.074;17.004;2023-05-07T05:53:23;16.08;;;15.07;;
46653;SDS011;38960;51.074;17.004;2023-05-07T05:55:49;16.13;;;14.90;;
46653;SDS011;38960;51.074;17.004;2023-05-07T05:58:15;15.63;;;14.43;;
46653;SDS011;38960;51.074;17.004;2023-05-07T06:00:49;15.10;;;14.10;;
46653;SDS011;38960;51.074;17.004;2023-05-07T06:03:17;15.02;;;14.02;;
46653;SDS011;38960;51.074;17.004;2023-05-07T06:05:44;15.18;;;14.15;;
46653;SDS011;38960;51.074;17.004;2023-05-07T06:08:10;14.98;;;13.95;;
46653;SDS011;38960;51.074;17.004;2023-05-07T06:10:36;14.40;;;13.27;;
46653;SDS011;38960;51.074;17.004;2023-05-07T06:13:04;15.93;;;14.77;;
46653;SDS011;38960;51.074;17.004;2023-05-07T06:15:31;15.90;;;14.82;;
46653;SDS011;38960;51.074;17.004;2023-05-07T06:18:01;15.35;;;13.90;;
46653;SDS011;38960;51.074;17.004;2023-05-07T06:20:27;15.27;;;14.27;;
46653;SDS011;38960;51.074;17.004;2023-05-07T06:22:53;14.43;;;13.43;;
46653;SDS011;38960;51.074;17.004;2023-05-07T06:25:18;14.85;;;13.85;;
46653;SDS011;38960;51.074;17.004;2023-05-07T06:27:45;14.55;;;13.60;;
46653;SDS011;38960;51.074;17.004;2023-05-07T06:30:10;14.38;;;13.38;;
46653;SDS011;38960;51.074;17.004;2023-05-07T06:32:36;13.95;;;13.07;;
46653;SDS011;38960;51.074;17.004;2023-05-07T06:35:02;13.75;;;12.85;;
46653;SDS011;38960;51.074;17.004;2023-05-07T06:37:28;13.70;;;12.80;;
46653;SDS011;38960;51.074;17.004;2023-05-07T06:39:58;14.25;;;13.35;;
46653;SDS011;38960;51.074;17.004;2023-05-07T06:42:23;13.80;;;13.00;;
46653;SDS011;38960;51.074;17.004;2023-05-07T06:44:49;14.32;;;13.43;;
46653;SDS011;38960;51.074;17.004;2023-05-07T06:47:16;14.30;;;13.40;;
46653;SDS011;38960;51.074;17.004;2023-05-07T06:49:44;13.38;;;12.40;;
46653;SDS011;38960;51.074;17.004;2023-05-07T06:52:13;13.77;;;12.98;;
46653;SDS011;38960;51.074;17.004;2023-05-07T06:54:39;13.15;;;12.30;;
46653;SDS011;38960;51.074;17.004;2023-05-07T06:57:05;13.20;;;12.30;;
46653;SDS011;38960;51.074;17.004;2023-05-07T06:59:31;14.30;;;13.40;;
46653;SDS011;38960;51.074;17.004;2023-05-07T07:01:58;14.52;;;13.52;;
46653;SDS011;38960;51.074;17.004;2023-05-07T07:04:23;14.15;;;13.20;;
46653;SDS011;38960;51.074;17.004;2023-05-07T07:06:57;14.35;;;13.40;;
46653;SDS011;38960;51.074;17.004;2023-05-07T07:09:23;14.50;;;13.50;;
46653;SDS011;38960;51.074;17.004;2023-05-07T07:11:50;14.80;;;13.57;;
46653;SDS011;38960;51.074;17.004;2023-05-07T07:14:16;13.73;;;12.82;;
46653;SDS011;38960;51.074;17.004;2023-05-07T07:16:47;13.73;;;12.77;;
46653;SDS011;38960;51.074;17.004;2023-05-07T07:19:15;14.15;;;13.07;;
46653;SDS011;38960;51.074;17.004;2023-05-07T07:21:42;13.73;;;12.88;;
46653;SDS011;38960;51.074;17.004;2023-05-07T07:24:09;13.05;;;12.25;;
46653;SDS011;38960;51.074;17.004;2023-05-07T07:26:35;13.60;;;12.70;;
46653;SDS011;38960;51.074;17.004;2023-05-07T07:29:00;13.07;;;12.27;;
46653;SDS011;38960;51.074;17.004;2023-05-07T07:31:26;12.90;;;12.10;;
46653;SDS011;38960;51.074;17.004;2023-05-07T07:33:52;13.15;;;12.25;;
46653;SDS011;38960;51.074;17.004;2023-05-07T07:36:17;12.85;;;12.02;;
46653;SDS011;38960;51.074;17.004;2023-05-07T07:38:43;12.57;;;11.68;;
46653;SDS011;38960;51.074;17.004;2023-05-07T07:41:09;12.68;;;11.82;;
46653;SDS011;38960;51.074;17.004;2023-05-07T07:43:35;12.48;;;11.77;;
46653;SDS011;38960;51.074;17.004;2023-05-07T07:46:01;12.55;;;11.85;;
46653;SDS011;38960;51.074;17.004;2023-05-07T07:48:27;12.82;;;12.02;;
46653;SDS011;38960;51.074;17.004;2023-05-07T07:50:53;12.57;;;11.77;;
46653;SDS011;38960;51.074;17.004;2023-05-07T07:53:19;12.98;;;12.27;;
46653;SDS011;38960;51.074;17.004;2023-05-07T07:55:45;12.32;;;11.63;;
46653;SDS011;38960;51.074;17.004;2023-05-07T07:58:14;12.40;;;11.50;;
46653;SDS011;38960;51.074;17.004;2023-05-07T08:00:40;12.77;;;11.88;;
46653;SDS011;38960;51.074;17.004;2023-05-07T08:03:08;12.82;;;12.02;;
46653;SDS011;38960;51.074;17.004;2023-05-07T08:05:38;11.93;;;11.20;;
46653;SDS011;38960;51.074;17.004;2023-05-07T08:08:04;12.90;;;12.13;;
46653;SDS011;38960;51.074;17.004;2023-05-07T08:10:32;13.60;;;12.60;;
46653;SDS011;38960;51.074;17.004;2023-05-07T08:13:04;13.15;;;12.30;;
46653;SDS011;38960;51.074;17.004;2023-05-07T08:15:30;13.35;;;12.30;;
46653;SDS011;38960;51.074;17.004;2023-05-07T08:17:56;13.35;;;12.50;;
46653;SDS011;38960;51.074;17.004;2023-05-07T08:20:23;13.07;;;12.13;;
46653;SDS011;38960;51.074;17.004;2023-05-07T08:22:49;13.38;;;12.48;;
46653;SDS011;38960;51.074;17.004;2023-05-07T08:25:15;13.60;;;12.60;;
46653;SDS011;38960;51.074;17.004;2023-05-07T08:27:41;12.73;;;11.65;;
46653;SDS011;38960;51.074;17.004;2023-05-07T08:30:07;12.95;;;12.02;;
46653;SDS011;38960;51.074;17.004;2023-05-07T08:32:34;13.57;;;12.70;;
46653;SDS011;38960;51.074;17.004;2023-05-07T08:35:00;13.43;;;12.52;;
46653;SDS011;38960;51.074;17.004;2023-05-07T08:37:25;13.80;;;12.90;;
46653;SDS011;38960;51.074;17.004;2023-05-07T08:39:51;13.88;;;12.77;;
46653;SDS011;38960;51.074;17.004;2023-05-07T08:42:20;13.25;;;12.18;;
46653;SDS011;38960;51.074;17.004;2023-05-07T08:44:48;14.57;;;13.48;;
46653;SDS011;38960;51.074;17.004;2023-05-07T08:47:18;14.35;;;13.32;;
46653;SDS011;38960;51.074;17.004;2023-05-07T08:49:44;14.30;;;13.27;;
46653;SDS011;38960;51.074;17.004;2023-05-07T08:52:11;14.25;;;13.25;;
46653;SDS011;38960;51.074;17.004;2023-05-07T08:54:37;13.95;;;13.05;;
46653;SDS011;38960;51.074;17.004;2023-05-07T08:57:06;13.90;;;12.90;;
46653;SDS011;38960;51.074;17.004;2023-05-07T08:59:34;14.05;;;13.05;;
46653;SDS011;38960;51.074;17.004;2023-05-07T09:02:00;15.90;;;14.57;;
46653;SDS011;38960;51.074;17.004;2023-05-07T09:04:26;15.55;;;14.48;;
46653;SDS011;38960;51.074;17.004;2023-05-07T09:06:52;15.70;;;14.60;;
46653;SDS011;38960;51.074;17.004;2023-05-07T09:09:21;16.52;;;15.02;;
46653;SDS011;38960;51.074;17.004;2023-05-07T09:11:51;17.15;;;15.85;;
46653;SDS011;38960;51.074;17.004;2023-05-07T09:14:22;16.13;;;15.02;;
46653;SDS011;38960;51.074;17.004;2023-05-07T09:16:47;16.02;;;14.75;;
46653;SDS011;38960;51.074;17.004;2023-05-07T09:19:13;15.55;;;14.55;;
46653;SDS011;38960;51.074;17.004;2023-05-07T09:21:43;16.15;;;14.52;;
46653;SDS011;38960;51.074;17.004;2023-05-07T09:24:10;15.65;;;14.48;;
46653;SDS011;38960;51.074;17.004;2023-05-07T09:26:39;17.08;;;15.18;;
46653;SDS011;38960;51.074;17.004;2023-05-07T09:29:07;14.52;;;13.63;;
46653;SDS011;38960;51.074;17.004;2023-05-07T09:31:36;14.43;;;13.43;;
46653;SDS011;38960;51.074;17.004;2023-05-07T09:34:04;15.43;;;14.23;;
46653;SDS011;38960;51.074;17.004;2023-05-07T09:36:31;15.13;;;13.90;;
46653;SDS011;38960;51.074;17.004;2023-05-07T09:39:01;13.82;;;12.93;;
46653;SDS011;38960;51.074;17.004;2023-05-07T09:41:29;14.30;;;13.35;;
46653;SDS011;38960;51.074;17.004;2023-05-07T09:44:04;14.38;;;13.27;;
46653;SDS011;38960;51.074;17.004;2023-05-07T09:46:36;12.45;;;11.65;;
46653;SDS011;38960;51.074;17.004;2023-05-07T09:49:16;12.82;;;11.93;;
46653;SDS011;38960;51.074;17.004;2023-05-07T09:51:50;14.00;;;12.70;;
46653;SDS011;38960;51.074;17.004;2023-05-07T09:54:19;13.50;;;12.60;;
46653;SDS011;38960;51.074;17.004;2023-05-07T09:56:48;13.65;;;12.75;;
46653;SDS011;38960;51.074;17.004;2023-05-07T09:59:15;14.48;;;13.48;;
46653;SDS011;38960;51.074;17.004;2023-05-07T10:01:43;15.38;;;14.32;;
46653;SDS011;38960;51.074;17.004;2023-05-07T10:04:10;14.27;;;13.27;;
46653;SDS011;38960;51.074;17.004;2023-05-07T10:06:37;14.60;;;13.57;;
46653;SDS011;38960;51.074;17.004;2023-05-07T10:09:04;15.07;;;13.95;;
46653;SDS011;38960;51.074;17.004;2023-05-07T10:11:34;13.93;;;12.93;;
46653;SDS011;38960;51.074;17.004;2023-05-07T10:14:04;14.77;;;13.63;;
46653;SDS011;38960;51.074;17.004;2023-05-07T10:16:34;13.80;;;12.80;;
46653;SDS011;38960;51.074;17.004;2023-05-07T10:19:06;13.02;;;12.13;;
46653;SDS011;38960;51.074;17.004;2023-05-07T10:21:35;13.35;;;12.38;;
46653;SDS011;38960;51.074;17.004;2023-05-07T10:24:08;14.20;;;13.07;;
46653;SDS011;38960;51.074;17.004;2023-05-07T10:26:42;13.80;;;12.65;;
46653;SDS011;38960;51.074;17.004;2023-05-07T10:29:18;13.23;;;12.32;;
46653;SDS011;38960;51.074;17.004;2023-05-07T10:34:57;12.90;;;11.82;;
46653;SDS011;38960;51.074;17.004;2023-05-07T10:37:25;13.23;;;12.23;;
46653;SDS011;38960;51.074;17.004;2023-05-07T10:39:51;13.35;;;12.43;;
46653;SDS011;38960;51.074;17.004;2023-05-07T10:42:19;13.35;;;12.48;;
46653;SDS011;38960;51.074;17.004;2023-05-07T10:44:50;14.52;;;13.57;;
46653;SDS011;38960;51.074;17.004;2023-05-07T10:47:22;15.13;;;14.20;;
46653;SDS011;38960;51.074;17.004;2023-05-07T10:52:23;14.13;;;13.23;;
46653;SDS011;38960;51.074;17.004;2023-05-07T10:57:48;14.25;;;13.13;;
46653;SDS011;38960;51.074;17.004;2023-05-07T11:05:29;13.82;;;12.98;;
46653;SDS011;38960;51.074;17.004;2023-05-07T11:08:22;15.68;;;14.77;;
46653;SDS011;38960;51.074;17.004;2023-05-07T11:11:08;13.18;;;12.18;;
46653;SDS011;38960;51.074;17.004;2023-05-07T11:13:57;13.48;;;12.48;;
46653;SDS011;38960;51.074;17.004;2023-05-07T11:16:30;12.73;;;11.88;;
46653;SDS011;38960;51.074;17.004;2023-05-07T11:19:16;13.52;;;12.63;;
46653;SDS011;38960;51.074;17.004;2023-05-07T11:21:47;12.63;;;11.63;;
46653;SDS011;38960;51.074;17.004;2023-05-07T11:24:26;13.68;;;12.25;;
46653;SDS011;38960;51.074;17.004;2023-05-07T11:26:56;12.73;;;11.82;;
46653;SDS011;38960;51.074;17.004;2023-05-07T11:29:23;12.77;;;11.98;;
46653;SDS011;38960;51.074;17.004;2023-05-07T11:31:55;12.63;;;11.82;;
46653;SDS011;38960;51.074;17.004;2023-05-07T11:34:26;13.75;;;12.80;;
46653;SDS011;38960;51.074;17.004;2023-05-07T11:36:54;12.93;;;11.93;;
46653;SDS011;38960;51.074;17.004;2023-05-07T11:39:31;15.52;;;14.52;;
46653;SDS011;38960;51.074;17.004;2023-05-07T11:42:01;12.55;;;11.68;;
46653;SDS011;38960;51.074;17.004;2023-05-07T11:44:45;11.07;;;10.20;;
46653;SDS011;38960;51.074;17.004;2023-05-07T11:47:16;10.73;;;9.93;;
46653;SDS011;38960;51.074;17.004;2023-05-07T11:49:42;13.18;;;12.18;;
46653;SDS011;38960;51.074;17.004;2023-05-07T11:52:09;12.80;;;12.00;;
46653;SDS011;38960;51.074;17.004;2023-05-07T11:54:35;13.57;;;12.57;;
46653;SDS011;38960;51.074;17.004;2023-05-07T11:57:02;14.70;;;13.68;;
46653;SDS011;38960;51.074;17.004;2023-05-07T11:59:27;13.98;;;13.07;;
46653;SDS011;38960;51.074;17.004;2023-05-07T12:01:56;13.38;;;12.45;;
46653;SDS011;38960;51.074;17.004;2023-05-07T12:04:22;12.68;;;11.88;;
46653;SDS011;38960;51.074;17.004;2023-05-07T12:06:48;12.52;;;11.63;;
46653;SDS011;38960;51.074;17.004;2023-05-07T12:09:16;12.43;;;11.63;;
46653;SDS011;38960;51.074;17.004;2023-05-07T12:11:41;13.27;;;12.20;;
46653;SDS011;38960;51.074;17.004;2023-05-07T12:14:11;13.77;;;12.88;;
46653;SDS011;38960;51.074;17.004;2023-05-07T12:16:36;13.13;;;12.05;;
46653;SDS011;38960;51.074;17.004;2023-05-07T12:19:02;12.43;;;11.63;;
46653;SDS011;38960;51.074;17.004;2023-05-07T12:21:27;12.80;;;11.82;;
46653;SDS011;38960;51.074;17.004;2023-05-07T12:23:53;13.48;;;12.32;;
46653;SDS011;38960;51.074;17.004;2023-05-07T12:26:19;13.23;;;12.13;;
46653;SDS011;38960;51.074;17.004;2023-05-07T12:28:46;12.10;;;11.30;;
46653;SDS011;38960;51.074;17.004;2023-05-07T12:31:11;12.93;;;12.13;;
46653;SDS011;38960;51.074;17.004;2023-05-07T12:33:39;12.68;;;11.88;;
46653;SDS011;38960;51.074;17.004;2023-05-07T12:36:06;12.82;;;11.65;;
46653;SDS011;38960;51.074;17.004;2023-05-07T12:38:38;13.88;;;12.88;;
46653;SDS011;38960;51.074;17.004;2023-05-07T12:41:04;11.63;;;10.77;;
46653;SDS011;38960;51.074;17.004;2023-05-07T12:43:30;13.52;;;12.45;;
46653;SDS011;38960;51.074;17.004;2023-05-07T12:45:56;12.77;;;11.98;;
46653;SDS011;38960;51.074;17.004;2023-05-07T12:48:23;12.15;;;11.25;;
46653;SDS011;38960;51.074;17.004;2023-05-07T12:50:54;12.65;;;11.63;;
46653;SDS011;38960;51.074;17.004;2023-05-07T12:53:20;13.18;;;12.27;;
46653;SDS011;38960;51.074;17.004;2023-05-07T12:55:48;12.35;;;11.57;;
46653;SDS011;38960;51.074;17.004;2023-05-07T12:58:24;12.65;;;11.82;;
46653;SDS011;38960;51.074;17.004;2023-05-07T13:00:50;12.43;;;11.65;;
46653;SDS011;38960;51.074;17.004;2023-05-07T13:05:49;12.63;;;11.73;;
46653;SDS011;38960;51.074;17.004;2023-05-07T13:10:53;11.95;;;11.18;;
46653;SDS011;38960;51.074;17.004;2023-05-07T13:13:19;12.10;;;11.40;;
46653;SDS011;38960;51.074;17.004;2023-05-07T13:15:45;12.95;;;12.07;;
46653;SDS011;38960;51.074;17.004;2023-05-07T13:18:12;12.77;;;11.98;;
46653;SDS011;38960;51.074;17.004;2023-05-07T13:20:37;12.43;;;11.63;;
46653;SDS011;38960;51.074;17.004;2023-05-07T13:23:03;13.40;;;12.50;;
46653;SDS011;38960;51.074;17.004;2023-05-07T13:25:29;13.80;;;12.77;;
46653;SDS011;38960;51.074;17.004;2023-05-07T13:27:57;13.95;;;12.90;;
46653;SDS011;38960;51.074;17.004;2023-05-07T13:30:23;12.88;;;12.07;;
46653;SDS011;38960;51.074;17.004;2023-05-07T13:32:48;13.00;;;12.00;;
46653;SDS011;38960;51.074;17.004;2023-05-07T13:35:16;12.73;;;11.73;;
46653;SDS011;38960;51.074;17.004;2023-05-07T13:37:41;13.77;;;12.77;;
46653;SDS011;38960;51.074;17.004;2023-05-07T13:40:07;13.48;;;12.57;;
46653;SDS011;38960;51.074;17.004;2023-05-07T13:42:33;12.88;;;11.93;;
46653;SDS011;38960;51.074;17.004;2023-05-07T13:44:58;13.80;;;12.82;;
46653;SDS011;38960;51.074;17.004;2023-05-07T13:47:24;13.18;;;12.05;;
46653;SDS011;38960;51.074;17.004;2023-05-07T13:49:49;13.10;;;12.05;;
46653;SDS011;38960;51.074;17.004;2023-05-07T13:52:16;12.30;;;11.40;;
46653;SDS011;38960;51.074;17.004;2023-05-07T13:54:41;12.95;;;12.13;;
46653;SDS011;38960;51.074;17.004;2023-05-07T13:57:07;13.35;;;12.45;;
46653;SDS011;38960;51.074;17.004;2023-05-07T13:59:33;13.25;;;12.35;;
46653;SDS011;38960;51.074;17.004;2023-05-07T14:01:58;12.65;;;11.70;;
46653;SDS011;38960;51.074;17.004;2023-05-07T14:04:24;13.32;;;12.43;;
46653;SDS011;38960;51.074;17.004;2023-05-07T14:06:50;12.50;;;11.60;;
46653;SDS011;38960;51.074;17.004;2023-05-07T14:09:16;12.63;;;11.82;;
46653;SDS011;38960;51.074;17.004;2023-05-07T14:11:41;14.10;;;13.20;;
46653;SDS011;38960;51.074;17.004;2023-05-07T14:14:07;14.25;;;13.15;;
46653;SDS011;38960;51.074;17.004;2023-05-07T14:16:35;13.27;;;12.38;;
46653;SDS011;38960;51.074;17.004;2023-05-07T14:19:01;13.23;;;12.35;;
46653;SDS011;38960;51.074;17.004;2023-05-07T14:21:27;14.82;;;13.82;;
46653;SDS011;38960;51.074;17.004;2023-05-07T14:23:52;13.05;;;12.23;;
46653;SDS011;38960;51.074;17.004;2023-05-07T14:26:18;12.98;;;12.07;;
46653;SDS011;38960;51.074;17.004;2023-05-07T14:28:44;12.40;;;11.50;;